Latest Weather Observations for Nambour

IDQ60801

Issued at 8:02 pm EST Tuesday 21 February 2017 (issued every 30 minutes, with the page automatically refreshed every 10 minutes)

About weather observations | Map of weather stations | Latest weather observations for QLD | Other Formats
Station Details ID: 040988 Name: NAMBOUR DAFF - HILLSIDE Lat: -26.64 Lon: 152.94 Height: 53.24 m
Data from the previous 72 hours. | See also: Recent months at Nambour
Date/Time
EST
Temp
°C
App
Temp
°C
Dew
Point
°C
Rel
Hum
%
Delta-T
°C
Wind Press
QNH
hPa
Press
MSL
hPa
Rain since
9am
mm
Dir  Spd
km/h
Gust
km/h
Spd
kts
Gust
kts
21/08:00pm 24.9 25.9 16.3 59 5.3 SE 6 7 3 4 - - -
21/07:30pm 25.3 26.6 17.0 60 5.2 ESE 6 9 3 5 - - 0.0
21/07:00pm 25.6 26.8 18.3 64 4.6 ESE 9 19 5 10 - - 0.0
21/06:30pm 25.8 27.5 18.5 64 4.6 ESE 7 15 4 8 - - 0.0
21/06:00pm 26.3 27.2 18.4 61 5.0 E 11 19 6 10 - - 0.0
21/05:30pm 26.6 26.6 18.2 60 5.3 E 15 24 8 13 - - 0.0
21/05:00pm 27.1 27.9 18.1 58 5.7 ESE 11 24 6 13 - - 0.0
21/04:30pm 27.5 27.0 16.8 52 6.7 ESE 15 22 8 12 - - 0.0
21/04:00pm 28.0 27.8 15.6 46 7.6 ESE 11 26 6 14 - - 0.0
21/03:30pm 28.5 27.8 15.4 45 8.0 ESE 13 19 7 10 - - 0.0
21/03:00pm 29.1 28.5 15.6 44 8.3 ESE 13 28 7 15 - - 0.0
21/02:30pm 29.8 28.8 15.5 42 8.8 E 15 28 8 15 - - 0.0
21/02:00pm 29.6 28.3 16.8 46 8.0 E 19 35 10 19 - - 0.0
21/01:30pm 29.9 30.2 18.0 48 7.6 E 13 24 7 13 - - 0.0
21/01:00pm 28.8 29.2 17.3 49 7.3 ESE 11 19 6 10 - - 0.0
21/12:30pm 30.3 30.3 16.3 42 8.8 E 11 24 6 13 - - 0.0
21/12:00pm 29.6 30.3 16.1 44 8.4 ESE 7 19 4 10 - - 0.0
21/11:30am 30.0 30.7 17.1 46 8.2 E 9 22 5 12 - - 0.0
21/11:00am 29.7 31.0 17.2 47 7.9 SE 6 13 3 7 - - 0.0
21/10:30am 29.4 30.3 17.6 49 7.5 ESE 9 17 5 9 - - 0.0
21/10:00am 29.1 29.9 17.3 49 7.5 ESE 9 15 5 8 - - 0.0
21/09:30am 28.8 30.5 18.6 54 6.6 SE 7 15 4 8 - - 0.0
21/09:00am 28.0 30.2 19.5 60 5.5 ESE 7 15 4 8 - - 0.2
21/08:30am 27.5 30.0 19.8 63 5.0 SE 6 13 3 7 - - 0.2
21/08:00am 26.6 29.2 20.0 67 4.3 E 6 9 3 5 - - 0.2
21/07:30am 25.5 29.0 20.3 73 3.4 E 2 7 1 4 - - 0.2
21/07:00am 23.5 27.9 21.4 88 1.4 CALM 0 2 0 1 - - 0.2
21/06:30am 22.5 26.8 21.1 92 0.9 CALM 0 0 0 0 - - 0.2
21/06:00am 21.4 25.3 20.4 94 0.6 CALM 0 0 0 0 - - 0.2
21/05:30am 21.2 25.0 20.2 94 0.6 CALM 0 0 0 0 - - 0.2
21/05:00am 21.3 25.2 20.3 94 0.6 CALM 0 0 0 0 - - 0.2
21/04:30am 21.7 25.8 20.7 94 0.6 CALM 0 2 0 1 - - 0.2
21/04:00am 21.4 25.2 20.2 93 0.8 CALM 0 0 0 0 - - 0.2
21/03:30am 21.6 25.5 20.4 93 0.8 CALM 0 0 0 0 - - 0.2
21/03:00am 21.5 25.4 20.3 93 0.8 CALM 0 0 0 0 - - 0.2
21/02:30am 21.7 25.7 20.5 93 0.8 CALM 0 0 0 0 - - 0.2
21/02:00am 21.6 25.5 20.4 93 0.8 CALM 0 0 0 0 - - 0.2
21/01:30am 21.7 25.3 20.5 93 0.8 WNW 2 6 1 3 - - 0.2
21/01:00am 21.6 25.4 20.2 92 0.9 CALM 0 0 0 0 - - 0.2
21/12:30am 21.8 25.7 20.3 91 1.0 CALM 0 0 0 0 - - 0.2
21/12:00am 22.2 26.3 20.7 91 1.0 CALM 0 2 0 1 - - 0.2
 
Date/Time
EST
Temp
°C
App
Temp
°C
Dew
Point
°C
Rel
Hum
%
Delta-T
°C
Wind Press
QNH
hPa
Press
MSL
hPa
Rain since
9am
mm
Dir  Spd
km/h
Gust
km/h
Spd
kts
Gust
kts
20/11:30pm 22.2 26.2 20.5 90 1.1 CALM 0 0 0 0 - - 0.2
20/11:00pm 22.5 26.4 20.4 88 1.4 CALM 0 0 0 0 - - 0.2
20/10:30pm 22.7 26.7 20.6 88 1.4 CALM 0 2 0 1 - - 0.2
20/10:00pm 22.6 26.1 19.6 83 1.9 CALM 0 0 0 0 - - 0.2
20/09:30pm 22.8 26.2 19.4 81 2.2 CALM 0 0 0 0 - - 0.2
20/09:00pm 23.3 26.9 19.7 80 2.3 CALM 0 0 0 0 - - 0.2
20/08:30pm 23.6 27.0 19.3 77 2.8 CALM 0 0 0 0 - - 0.2
20/08:00pm 23.9 27.3 19.4 76 2.9 CALM 0 0 0 0 - - 0.2
20/07:30pm 24.5 27.9 19.3 73 3.3 CALM 0 2 0 1 - - 0.2
20/07:00pm 24.9 28.2 19.1 70 3.7 CALM 0 2 0 1 - - 0.2
20/06:30pm 25.7 28.1 18.9 66 4.4 SE 4 9 2 5 - - 0.2
20/06:00pm 26.4 28.3 18.5 62 5.0 ESE 6 11 3 6 - - 0.2
20/05:30pm 27.2 28.5 18.5 59 5.6 E 9 13 5 7 - - 0.2
20/05:00pm 28.3 28.9 17.8 53 6.7 E 11 19 6 10 - - 0.2
20/04:30pm 28.7 28.3 17.2 49 7.2 ENE 15 24 8 13 - - 0.2
20/04:00pm 29.9 30.2 16.0 43 8.6 E 9 17 5 9 - - 0.2
20/03:30pm 29.0 28.1 15.9 45 8.1 ENE 15 22 8 12 - - 0.2
20/03:00pm 30.8 30.9 15.6 39 9.4 E 9 19 5 10 - - 0.2
20/02:30pm 30.6 31.1 16.6 43 8.8 ESE 9 15 5 8 - - 0.2
20/02:00pm 31.5 31.0 12.8 32 11.1 NNE 7 15 4 8 - - 0.2
20/01:30pm 30.9 30.5 14.1 36 10.2 E 9 17 5 9 - - 0.2
20/01:00pm 30.4 30.0 14.1 37 9.9 ESE 9 22 5 12 - - 0.2
20/12:30pm 30.3 31.8 16.7 44 8.6 ENE 4 11 2 6 - - 0.2
20/12:00pm 28.6 29.5 16.5 48 7.5 SSE 7 15 4 8 - - 0.2
20/11:30am 28.7 29.8 16.6 48 7.6 SSE 6 9 3 5 - - 0.2
20/11:00am 28.3 29.6 17.5 52 6.8 E 7 13 4 7 - - 0.2
20/10:30am 27.9 29.3 17.7 53 6.5 S 7 15 4 8 - - 0.2
20/10:00am 27.0 28.1 16.6 53 6.5 WSW 6 13 3 7 - - 0.2
20/09:30am 26.2 27.4 17.3 58 5.6 SW 7 15 4 8 - - 0.0
20/09:00am 26.0 28.4 17.9 61 5.1 ESE 2 7 1 4 - - 25.4
20/08:30am 25.5 27.3 17.4 61 5.1 SW 4 7 2 4 - - 25.4
20/08:00am 24.4 28.2 20.1 77 2.8 CALM 0 0 0 0 - - 25.4
20/07:30am 23.1 26.9 20.2 84 1.9 CALM 0 0 0 0 - - 25.4
20/07:00am 22.1 26.1 20.6 91 1.0 CALM 0 0 0 0 - - 25.4
20/06:30am 21.6 24.9 19.9 90 1.1 SSW 2 7 1 4 - - 25.4
20/06:00am 21.4 23.8 19.7 90 1.1 SSW 6 11 3 6 - - 25.4
20/05:30am 20.9 23.6 19.4 91 1.0 SW 4 6 2 3 - - 25.4
20/05:00am 21.5 24.0 19.8 90 1.1 SSE 6 7 3 4 - - 25.4
20/04:30am 21.5 24.8 20.0 91 1.0 SW 2 4 1 2 - - 25.4
20/04:00am 21.5 25.3 20.1 92 0.9 CALM 0 0 0 0 - - 25.4
20/03:30am 21.7 25.0 20.0 90 1.1 WSW 2 6 1 3 - - 25.4
20/03:00am 22.1 25.7 19.8 87 1.5 CALM 0 0 0 0 - - 25.4
20/02:30am 22.2 25.5 19.0 82 2.0 CALM 0 2 0 1 - - 25.4
20/02:00am 23.2 25.6 19.6 80 2.3 WSW 6 15 3 8 - - 25.4
20/01:30am 22.7 27.3 21.7 94 0.7 CALM 0 4 0 2 - - 25.4
20/01:00am 22.8 27.4 21.8 94 0.7 CALM 0 2 0 1 - - 25.4
20/12:30am 22.9 27.6 21.9 94 0.7 CALM 0 2 0 1 - - 25.4
20/12:00am 22.9 27.6 21.9 94 0.7 CALM 0 2 0 1 - - 25.4
 
Date/Time
EST
Temp
°C
App
Temp
°C
Dew
Point
°C
Rel
Hum
%
Delta-T
°C
Wind Press
QNH
hPa
Press
MSL
hPa
Rain since
9am
mm
Dir  Spd
km/h
Gust
km/h
Spd
kts
Gust
kts
19/11:30pm 22.8 27.4 21.8 94 0.7 CALM 0 0 0 0 - - 25.2
19/11:00pm 22.8 27.0 21.8 94 0.7 ENE 2 6 1 3 - - 25.2
19/10:30pm 22.7 26.9 21.7 94 0.7 SSW 2 4 1 2 - - 25.2
19/10:00pm 22.7 26.9 21.7 94 0.7 W 2 6 1 3 - - 25.2
19/09:30pm 22.7 27.3 21.7 94 0.7 CALM 0 4 0 2 - - 25.2
19/09:00pm 22.7 27.3 21.7 94 0.7 CALM 0 0 0 0 - - 25.2
19/08:30pm 22.7 27.2 21.5 93 0.8 CALM 0 0 0 0 - - 25.2
19/08:00pm 22.6 26.7 21.6 94 0.7 NNE 2 4 1 2 - - 25.2
19/07:30pm 22.6 27.1 21.6 94 0.7 CALM 0 0 0 0 - - 25.0
19/07:00pm 22.6 27.0 21.4 93 0.8 CALM 0 0 0 0 - - 24.8
19/06:30pm 22.6 26.9 21.2 92 0.9 CALM 0 0 0 0 - - 21.8
19/06:00pm 22.6 26.1 21.1 91 1.0 SE 4 6 2 3 - - 21.0
19/05:30pm 22.8 25.9 21.1 90 1.1 WSW 6 15 3 8 - - 17.8
19/05:00pm 24.7 26.9 19.3 72 3.5 S 6 11 3 6 - - 4.8
19/04:30pm 27.9 30.0 18.0 55 6.3 SW 4 11 2 6 - - 0.0
19/04:00pm 30.3 32.1 18.7 50 7.5 ESE 7 15 4 8 - - 0.0
19/03:30pm 30.6 30.4 17.7 46 8.2 ENE 15 20 8 11 - - 0.0
19/03:00pm 31.5 31.3 16.6 40 9.4 ENE 13 20 7 11 - - 0.0
19/02:30pm 33.2 33.9 17.0 38 10.3 ENE 9 15 5 8 - - 0.0
19/02:00pm 32.1 32.5 17.2 41 9.5 ENE 11 20 6 11 - - 0.0
19/01:30pm 34.0 34.7 15.5 33 11.6 NW 6 11 3 6 - - 0.0
19/01:00pm 33.5 34.1 15.9 34 11.1 NNE 7 19 4 10 - - 0.0
19/12:30pm 33.4 33.1 15.4 34 11.2 NNE 11 24 6 13 - - 0.0
19/12:00pm 33.1 33.4 16.0 35 10.8 NNE 9 19 5 10 - - 0.0
19/11:30am 33.2 34.1 16.5 36 10.6 NE 7 15 4 8 - - 0.0
19/11:00am 31.9 32.1 15.8 38 10.1 NNE 9 15 5 8 - - 0.0
19/10:30am 31.0 31.4 15.4 38 9.7 N 7 13 4 7 - - 0.0
19/10:00am 30.2 30.7 15.5 41 9.1 NNE 7 19 4 10 - - 0.0
19/09:30am 29.9 30.5 16.7 45 8.3 NNW 9 15 5 8 - - 0.0
19/09:00am 28.8 29.9 17.0 49 7.4 N 7 17 4 9 - - 0.0
19/08:30am 28.0 29.0 16.9 51 6.9 N 7 13 4 7 - - 0.0
19/08:00am 27.0 27.9 16.6 53 6.5 NNE 7 11 4 6 - - 0.0
19/07:30am 26.4 27.5 16.6 55 6.1 N 6 11 3 6 - - 0.0
19/07:00am 24.2 26.9 17.7 67 4.1 CALM 0 6 0 3 - - 0.0
19/06:30am 23.3 26.4 18.6 75 3.0 CALM 0 0 0 0 - - 0.0
19/06:00am 21.7 24.1 17.1 75 2.8 CALM 0 2 0 1 - - 0.0
19/05:30am 21.6 23.9 16.8 74 2.9 CALM 0 0 0 0 - - 0.0
19/05:00am 21.8 24.1 16.7 73 3.1 CALM 0 0 0 0 - - 0.0
19/04:30am 22.2 24.4 16.5 70 3.5 CALM 0 0 0 0 - - 0.0
19/04:00am 22.1 24.3 16.6 71 3.4 CALM 0 0 0 0 - - 0.0
19/03:30am 22.2 24.1 15.8 67 3.9 CALM 0 0 0 0 - - 0.0
19/03:00am 22.5 24.0 15.6 65 4.1 WSW 2 6 1 3 - - 0.0
19/02:30am 23.8 24.8 15.3 59 5.1 W 4 4 2 2 - - 0.0
19/02:00am 24.7 25.5 15.9 58 5.4 N 6 9 3 5 - - 0.0
19/01:30am 24.6 26.4 17.3 64 4.5 WNW 4 9 2 5 - - 0.0
19/01:00am 24.9 26.6 18.4 67 4.1 W 7 13 4 7 - - 0.0
19/12:30am 24.3 26.3 18.7 71 3.6 W 6 13 3 7 - - 0.0
19/12:00am 24.0 26.3 18.6 72 3.4 N 4 6 2 3 - - 0.0
 
Date/Time
EST
Temp
°C
App
Temp
°C
Dew
Point
°C
Rel
Hum
%
Delta-T
°C
Wind Press
QNH
hPa
Press
MSL
hPa
Rain since
9am
mm
Dir  Spd
km/h
Gust
km/h
Spd
kts
Gust
kts
18/11:30pm 24.3 26.4 18.9 72 3.4 NNW 6 13 3 7 - - 0.0
18/11:00pm 24.2 26.9 19.5 75 3.0 NNW 4 6 2 3 - - 0.0
18/10:30pm 24.4 26.7 19.5 74 3.2 NNW 6 9 3 5 - - 0.0
18/10:00pm 24.5 27.6 19.6 74 3.2 N 2 6 1 3 - - 0.0
18/09:30pm 24.9 27.1 19.5 72 3.5 N 7 11 4 6 - - 0.0
18/09:00pm 25.0 27.1 19.4 71 3.6 N 7 13 4 7 - - 0.0
18/08:30pm 25.1 27.3 19.2 70 3.8 N 6 9 3 5 - - 0.0

Other Formats:

Comma delimited format used in spreadsheet applications
http://www.bom.gov.au/fwo/IDQ60801/IDQ60801.95572.axf

JavaScript Object Notation format (JSON) in row-major order
http://www.bom.gov.au/fwo/IDQ60801/IDQ60801.95572.json